sensor_id;sensor_type;location;lat;lon;timestamp;temperature;humidity
25436;DHT22;13363;52.772;-3.890;2023-03-05T00:02:07;5.80;99.90
25436;DHT22;13363;52.772;-3.890;2023-03-05T00:04:33;5.80;99.90
25436;DHT22;13363;52.772;-3.890;2023-03-05T00:06:59;5.90;99.90
25436;DHT22;13363;52.772;-3.890;2023-03-05T00:09:25;5.80;99.90
25436;DHT22;13363;52.772;-3.890;2023-03-05T00:11:52;5.90;99.90
25436;DHT22;13363;52.772;-3.890;2023-03-05T00:14:17;5.80;99.90
25436;DHT22;13363;52.772;-3.890;2023-03-05T00:16:43;5.80;99.90
25436;DHT22;13363;52.772;-3.890;2023-03-05T00:19:09;5.80;99.90
25436;DHT22;13363;52.772;-3.890;2023-03-05T00:21:37;5.90;99.90
25436;DHT22;13363;52.772;-3.890;2023-03-05T00:24:07;5.80;99.90
25436;DHT22;13363;52.772;-3.890;2023-03-05T00:26:35;5.80;99.90
25436;DHT22;13363;52.772;-3.890;2023-03-05T00:29:02;5.80;99.90
25436;DHT22;13363;52.772;-3.890;2023-03-05T00:31:29;5.80;99.90
25436;DHT22;13363;52.772;-3.890;2023-03-05T00:33:58;5.80;99.90
25436;DHT22;13363;52.772;-3.890;2023-03-05T00:36:25;5.80;99.90
25436;DHT22;13363;52.772;-3.890;2023-03-05T00:38:51;5.80;99.90
25436;DHT22;13363;52.772;-3.890;2023-03-05T00:41:17;5.80;99.90
25436;DHT22;13363;52.772;-3.890;2023-03-05T00:43:43;5.70;99.90
25436;DHT22;13363;52.772;-3.890;2023-03-05T00:46:09;5.70;99.90
25436;DHT22;13363;52.772;-3.890;2023-03-05T00:48:35;5.70;99.90
25436;DHT22;13363;52.772;-3.890;2023-03-05T00:51:01;5.70;99.90
25436;DHT22;13363;52.772;-3.890;2023-03-05T00:53:26;5.70;99.90
25436;DHT22;13363;52.772;-3.890;2023-03-05T00:55:52;5.70;99.90
25436;DHT22;13363;52.772;-3.890;2023-03-05T00:58:18;5.70;99.90
25436;DHT22;13363;52.772;-3.890;2023-03-05T01:00:43;5.70;99.90
25436;DHT22;13363;52.772;-3.890;2023-03-05T01:03:09;5.70;99.90
25436;DHT22;13363;52.772;-3.890;2023-03-05T01:05:35;5.80;99.90
25436;DHT22;13363;52.772;-3.890;2023-03-05T01:08:01;5.70;99.90
25436;DHT22;13363;52.772;-3.890;2023-03-05T01:10:27;5.70;99.90
25436;DHT22;13363;52.772;-3.890;2023-03-05T01:12:55;5.70;99.90
25436;DHT22;13363;52.772;-3.890;2023-03-05T01:15:21;5.80;99.90
25436;DHT22;13363;52.772;-3.890;2023-03-05T01:17:47;5.80;99.90
25436;DHT22;13363;52.772;-3.890;2023-03-05T01:20:15;5.80;99.90
25436;DHT22;13363;52.772;-3.890;2023-03-05T01:22:41;5.80;99.90
25436;DHT22;13363;52.772;-3.890;2023-03-05T01:25:07;5.80;99.90
25436;DHT22;13363;52.772;-3.890;2023-03-05T01:27:33;5.70;99.90
25436;DHT22;13363;52.772;-3.890;2023-03-05T01:29:59;5.70;99.90
25436;DHT22;13363;52.772;-3.890;2023-03-05T01:32:25;5.70;99.90
25436;DHT22;13363;52.772;-3.890;2023-03-05T01:34:50;5.70;99.90
25436;DHT22;13363;52.772;-3.890;2023-03-05T01:37:16;5.70;99.90
25436;DHT22;13363;52.772;-3.890;2023-03-05T01:39:42;5.70;99.90
25436;DHT22;13363;52.772;-3.890;2023-03-05T01:42:07;5.70;99.90
25436;DHT22;13363;52.772;-3.890;2023-03-05T01:44:34;5.70;99.90
25436;DHT22;13363;52.772;-3.890;2023-03-05T01:47:00;5.60;99.90
25436;DHT22;13363;52.772;-3.890;2023-03-05T01:49:30;5.60;99.90
25436;DHT22;13363;52.772;-3.890;2023-03-05T01:52:10;5.60;99.90
25436;DHT22;13363;52.772;-3.890;2023-03-05T01:54:42;5.60;99.90
25436;DHT22;13363;52.772;-3.890;2023-03-05T01:57:15;5.60;99.90
25436;DHT22;13363;52.772;-3.890;2023-03-05T01:59:44;5.60;99.90
25436;DHT22;13363;52.772;-3.890;2023-03-05T02:02:12;5.70;99.90
25436;DHT22;13363;52.772;-3.890;2023-03-05T02:04:47;5.60;99.90
25436;DHT22;13363;52.772;-3.890;2023-03-05T02:07:15;5.60;99.90
25436;DHT22;13363;52.772;-3.890;2023-03-05T02:09:42;5.60;99.90
25436;DHT22;13363;52.772;-3.890;2023-03-05T02:12:09;5.70;99.90
25436;DHT22;13363;52.772;-3.890;2023-03-05T02:14:36;5.70;99.90
25436;DHT22;13363;52.772;-3.890;2023-03-05T02:17:02;5.70;99.90
25436;DHT22;13363;52.772;-3.890;2023-03-05T02:19:28;5.70;99.90
25436;DHT22;13363;52.772;-3.890;2023-03-05T02:21:54;5.70;99.90
25436;DHT22;13363;52.772;-3.890;2023-03-05T02:24:49;5.60;99.90
25436;DHT22;13363;52.772;-3.890;2023-03-05T02:27:16;5.60;99.90
25436;DHT22;13363;52.772;-3.890;2023-03-05T02:29:44;5.70;99.90
25436;DHT22;13363;52.772;-3.890;2023-03-05T02:32:11;5.60;99.90
25436;DHT22;13363;52.772;-3.890;2023-03-05T02:34:37;5.60;99.90
25436;DHT22;13363;52.772;-3.890;2023-03-05T02:37:03;5.60;99.90
25436;DHT22;13363;52.772;-3.890;2023-03-05T02:39:30;5.60;99.90
25436;DHT22;13363;52.772;-3.890;2023-03-05T02:41:56;5.50;99.90
25436;DHT22;13363;52.772;-3.890;2023-03-05T02:44:22;5.60;99.90
25436;DHT22;13363;52.772;-3.890;2023-03-05T02:46:48;5.50;99.90
25436;DHT22;13363;52.772;-3.890;2023-03-05T02:49:13;5.50;99.90
25436;DHT22;13363;52.772;-3.890;2023-03-05T02:51:39;5.50;99.90
25436;DHT22;13363;52.772;-3.890;2023-03-05T02:54:05;5.50;99.90
25436;DHT22;13363;52.772;-3.890;2023-03-05T02:56:31;5.50;99.90
25436;DHT22;13363;52.772;-3.890;2023-03-05T02:58:57;5.50;99.90
25436;DHT22;13363;52.772;-3.890;2023-03-05T03:01:23;5.50;99.90
25436;DHT22;13363;52.772;-3.890;2023-03-05T03:03:48;5.50;99.90
25436;DHT22;13363;52.772;-3.890;2023-03-05T03:06:14;5.50;99.90
25436;DHT22;13363;52.772;-3.890;2023-03-05T03:08:40;5.50;99.90
25436;DHT22;13363;52.772;-3.890;2023-03-05T03:11:09;5.50;99.90
25436;DHT22;13363;52.772;-3.890;2023-03-05T03:13:37;5.50;99.90
25436;DHT22;13363;52.772;-3.890;2023-03-05T03:16:05;5.50;99.90
25436;DHT22;13363;52.772;-3.890;2023-03-05T03:18:31;5.40;99.90
25436;DHT22;13363;52.772;-3.890;2023-03-05T03:20:57;5.40;99.90
25436;DHT22;13363;52.772;-3.890;2023-03-05T03:23:23;5.40;99.90
25436;DHT22;13363;52.772;-3.890;2023-03-05T03:25:48;5.50;99.90
25436;DHT22;13363;52.772;-3.890;2023-03-05T03:28:14;5.50;99.90
25436;DHT22;13363;52.772;-3.890;2023-03-05T03:30:40;5.40;99.90
25436;DHT22;13363;52.772;-3.890;2023-03-05T03:33:05;5.40;99.90
25436;DHT22;13363;52.772;-3.890;2023-03-05T03:35:31;5.40;99.90
25436;DHT22;13363;52.772;-3.890;2023-03-05T03:37:57;5.40;99.90
25436;DHT22;13363;52.772;-3.890;2023-03-05T03:40:23;5.40;99.90
25436;DHT22;13363;52.772;-3.890;2023-03-05T03:42:51;5.40;99.90
25436;DHT22;13363;52.772;-3.890;2023-03-05T03:45:16;5.40;99.90
25436;DHT22;13363;52.772;-3.890;2023-03-05T03:47:42;5.40;99.90
25436;DHT22;13363;52.772;-3.890;2023-03-05T03:50:08;5.40;99.90
25436;DHT22;13363;52.772;-3.890;2023-03-05T03:52:34;5.40;99.90
25436;DHT22;13363;52.772;-3.890;2023-03-05T03:55:00;5.40;99.90
25436;DHT22;13363;52.772;-3.890;2023-03-05T03:57:29;5.40;99.90
25436;DHT22;13363;52.772;-3.890;2023-03-05T03:59:55;5.30;99.90
25436;DHT22;13363;52.772;-3.890;2023-03-05T04:02:22;5.40;99.90
25436;DHT22;13363;52.772;-3.890;2023-03-05T04:04:47;5.30;99.90
25436;DHT22;13363;52.772;-3.890;2023-03-05T04:07:13;5.40;99.90
25436;DHT22;13363;52.772;-3.890;2023-03-05T04:09:39;5.40;99.90
25436;DHT22;13363;52.772;-3.890;2023-03-05T04:12:05;5.50;99.90
25436;DHT22;13363;52.772;-3.890;2023-03-05T04:14:30;5.40;99.90
25436;DHT22;13363;52.772;-3.890;2023-03-05T04:16:56;5.40;99.90
25436;DHT22;13363;52.772;-3.890;2023-03-05T04:19:22;5.40;99.90
25436;DHT22;13363;52.772;-3.890;2023-03-05T04:21:47;5.30;99.90
25436;DHT22;13363;52.772;-3.890;2023-03-05T04:24:13;5.30;99.90
25436;DHT22;13363;52.772;-3.890;2023-03-05T04:26:39;5.30;99.90
25436;DHT22;13363;52.772;-3.890;2023-03-05T04:29:05;5.20;99.90
25436;DHT22;13363;52.772;-3.890;2023-03-05T04:31:30;5.30;99.90
25436;DHT22;13363;52.772;-3.890;2023-03-05T04:33:56;5.20;99.90
25436;DHT22;13363;52.772;-3.890;2023-03-05T04:36:22;5.30;99.90
25436;DHT22;13363;52.772;-3.890;2023-03-05T04:38:47;5.30;99.90
25436;DHT22;13363;52.772;-3.890;2023-03-05T04:41:13;5.30;99.90
25436;DHT22;13363;52.772;-3.890;2023-03-05T04:43:39;5.30;99.90
25436;DHT22;13363;52.772;-3.890;2023-03-05T04:46:04;5.30;99.90
25436;DHT22;13363;52.772;-3.890;2023-03-05T04:48:30;5.30;99.90
25436;DHT22;13363;52.772;-3.890;2023-03-05T04:50:55;5.30;99.90
25436;DHT22;13363;52.772;-3.890;2023-03-05T04:53:22;5.30;99.90
25436;DHT22;13363;52.772;-3.890;2023-03-05T04:55:55;5.30;99.90
25436;DHT22;13363;52.772;-3.890;2023-03-05T04:58:21;5.20;99.90
25436;DHT22;13363;52.772;-3.890;2023-03-05T05:00:47;5.20;99.90
25436;DHT22;13363;52.772;-3.890;2023-03-05T05:03:13;5.30;99.90
25436;DHT22;13363;52.772;-3.890;2023-03-05T05:05:39;5.30;99.90
25436;DHT22;13363;52.772;-3.890;2023-03-05T05:08:05;5.30;99.90
25436;DHT22;13363;52.772;-3.890;2023-03-05T05:10:31;5.30;99.90
25436;DHT22;13363;52.772;-3.890;2023-03-05T05:12:56;5.30;99.90
25436;DHT22;13363;52.772;-3.890;2023-03-05T05:15:23;5.30;99.90
25436;DHT22;13363;52.772;-3.890;2023-03-05T05:17:49;5.20;99.90
25436;DHT22;13363;52.772;-3.890;2023-03-05T05:20:15;5.20;99.90
25436;DHT22;13363;52.772;-3.890;2023-03-05T05:22:42;5.20;99.90
25436;DHT22;13363;52.772;-3.890;2023-03-05T05:25:08;5.20;99.90
25436;DHT22;13363;52.772;-3.890;2023-03-05T05:27:35;5.20;99.90
25436;DHT22;13363;52.772;-3.890;2023-03-05T05:30:01;5.30;99.90
25436;DHT22;13363;52.772;-3.890;2023-03-05T05:32:28;5.20;99.90
25436;DHT22;13363;52.772;-3.890;2023-03-05T05:34:55;5.20;99.90
25436;DHT22;13363;52.772;-3.890;2023-03-05T05:37:21;5.20;99.90
25436;DHT22;13363;52.772;-3.890;2023-03-05T05:39:47;5.20;99.90
25436;DHT22;13363;52.772;-3.890;2023-03-05T05:42:19;5.20;99.90
25436;DHT22;13363;52.772;-3.890;2023-03-05T05:44:45;5.20;99.90
25436;DHT22;13363;52.772;-3.890;2023-03-05T05:47:13;5.20;99.90
25436;DHT22;13363;52.772;-3.890;2023-03-05T05:49:38;5.20;99.90
25436;DHT22;13363;52.772;-3.890;2023-03-05T05:52:04;5.20;99.90
25436;DHT22;13363;52.772;-3.890;2023-03-05T05:54:30;5.10;99.90
25436;DHT22;13363;52.772;-3.890;2023-03-05T05:56:56;5.10;99.90
25436;DHT22;13363;52.772;-3.890;2023-03-05T05:59:22;5.20;99.90
25436;DHT22;13363;52.772;-3.890;2023-03-05T06:01:47;5.10;99.90
25436;DHT22;13363;52.772;-3.890;2023-03-05T06:04:13;5.10;99.90
25436;DHT22;13363;52.772;-3.890;2023-03-05T06:06:39;5.10;99.90
25436;DHT22;13363;52.772;-3.890;2023-03-05T06:09:04;5.10;99.90
25436;DHT22;13363;52.772;-3.890;2023-03-05T06:11:30;5.10;99.90
25436;DHT22;13363;52.772;-3.890;2023-03-05T06:13:56;5.10;99.90
25436;DHT22;13363;52.772;-3.890;2023-03-05T06:16:23;5.10;99.90
25436;DHT22;13363;52.772;-3.890;2023-03-05T06:18:50;5.10;99.90
25436;DHT22;13363;52.772;-3.890;2023-03-05T06:21:18;5.10;99.90
25436;DHT22;13363;52.772;-3.890;2023-03-05T06:23:45;5.10;99.90
25436;DHT22;13363;52.772;-3.890;2023-03-05T06:26:13;5.10;99.90
25436;DHT22;13363;52.772;-3.890;2023-03-05T06:28:39;5.10;99.90
25436;DHT22;13363;52.772;-3.890;2023-03-05T06:31:13;5.10;99.90
25436;DHT22;13363;52.772;-3.890;2023-03-05T06:33:40;5.10;99.90
25436;DHT22;13363;52.772;-3.890;2023-03-05T06:36:09;5.00;99.90
25436;DHT22;13363;52.772;-3.890;2023-03-05T06:38:36;5.00;99.90
25436;DHT22;13363;52.772;-3.890;2023-03-05T06:41:05;5.00;99.90
25436;DHT22;13363;52.772;-3.890;2023-03-05T06:43:34;5.00;99.90
25436;DHT22;13363;52.772;-3.890;2023-03-05T06:46:12;5.00;99.90
25436;DHT22;13363;52.772;-3.890;2023-03-05T06:48:38;5.00;99.90
25436;DHT22;13363;52.772;-3.890;2023-03-05T06:51:04;5.00;99.90
25436;DHT22;13363;52.772;-3.890;2023-03-05T06:53:30;5.10;99.90
25436;DHT22;13363;52.772;-3.890;2023-03-05T06:55:56;5.00;99.90
25436;DHT22;13363;52.772;-3.890;2023-03-05T06:58:22;5.00;99.90
25436;DHT22;13363;52.772;-3.890;2023-03-05T07:00:48;5.00;99.90
25436;DHT22;13363;52.772;-3.890;2023-03-05T07:03:14;5.10;99.90
25436;DHT22;13363;52.772;-3.890;2023-03-05T07:05:42;5.00;99.90
25436;DHT22;13363;52.772;-3.890;2023-03-05T07:08:08;5.10;99.90
25436;DHT22;13363;52.772;-3.890;2023-03-05T07:10:39;5.10;99.90
25436;DHT22;13363;52.772;-3.890;2023-03-05T07:13:06;5.10;99.90
25436;DHT22;13363;52.772;-3.890;2023-03-05T07:15:32;5.10;99.90
25436;DHT22;13363;52.772;-3.890;2023-03-05T07:17:58;5.10;99.90
25436;DHT22;13363;52.772;-3.890;2023-03-05T07:20:24;5.10;99.90
25436;DHT22;13363;52.772;-3.890;2023-03-05T07:22:49;5.10;99.90
25436;DHT22;13363;52.772;-3.890;2023-03-05T07:25:15;5.10;99.90
25436;DHT22;13363;52.772;-3.890;2023-03-05T07:27:46;5.10;99.90
25436;DHT22;13363;52.772;-3.890;2023-03-05T07:30:12;5.10;99.90
25436;DHT22;13363;52.772;-3.890;2023-03-05T07:32:38;5.00;99.90
25436;DHT22;13363;52.772;-3.890;2023-03-05T07:35:04;5.00;99.90
25436;DHT22;13363;52.772;-3.890;2023-03-05T07:37:30;5.10;99.90
25436;DHT22;13363;52.772;-3.890;2023-03-05T07:39:56;5.20;99.90
25436;DHT22;13363;52.772;-3.890;2023-03-05T07:42:22;5.20;99.90
25436;DHT22;13363;52.772;-3.890;2023-03-05T07:44:47;5.20;99.90
25436;DHT22;13363;52.772;-3.890;2023-03-05T07:47:13;5.10;99.90
25436;DHT22;13363;52.772;-3.890;2023-03-05T07:49:39;5.10;99.90
25436;DHT22;13363;52.772;-3.890;2023-03-05T07:52:08;5.10;99.90
25436;DHT22;13363;52.772;-3.890;2023-03-05T07:54:34;5.10;99.90
25436;DHT22;13363;52.772;-3.890;2023-03-05T07:57:06;5.20;99.90
25436;DHT22;13363;52.772;-3.890;2023-03-05T07:59:33;5.30;99.90
25436;DHT22;13363;52.772;-3.890;2023-03-05T08:01:58;5.30;99.90
25436;DHT22;13363;52.772;-3.890;2023-03-05T08:04:24;5.30;99.90
25436;DHT22;13363;52.772;-3.890;2023-03-05T08:06:50;5.20;99.90
25436;DHT22;13363;52.772;-3.890;2023-03-05T08:09:17;5.30;99.90
25436;DHT22;13363;52.772;-3.890;2023-03-05T08:11:43;5.30;99.90
25436;DHT22;13363;52.772;-3.890;2023-03-05T08:14:10;5.30;99.90
25436;DHT22;13363;52.772;-3.890;2023-03-05T08:16:35;5.40;99.90
25436;DHT22;13363;52.772;-3.890;2023-03-05T08:19:03;5.40;99.90
25436;DHT22;13363;52.772;-3.890;2023-03-05T08:21:31;5.40;99.90
25436;DHT22;13363;52.772;-3.890;2023-03-05T08:23:58;5.40;99.90
25436;DHT22;13363;52.772;-3.890;2023-03-05T08:26:26;5.40;99.90
25436;DHT22;13363;52.772;-3.890;2023-03-05T08:28:52;5.50;99.90
25436;DHT22;13363;52.772;-3.890;2023-03-05T08:31:22;5.40;99.90
25436;DHT22;13363;52.772;-3.890;2023-03-05T08:33:49;5.40;99.90
25436;DHT22;13363;52.772;-3.890;2023-03-05T08:36:15;5.40;99.90
25436;DHT22;13363;52.772;-3.890;2023-03-05T08:38:41;5.50;99.90
25436;DHT22;13363;52.772;-3.890;2023-03-05T08:41:09;5.70;99.90
25436;DHT22;13363;52.772;-3.890;2023-03-05T08:43:35;5.60;99.90
25436;DHT22;13363;52.772;-3.890;2023-03-05T08:46:02;5.60;99.90
25436;DHT22;13363;52.772;-3.890;2023-03-05T08:48:29;5.60;99.90
25436;DHT22;13363;52.772;-3.890;2023-03-05T08:50:56;5.70;99.90
25436;DHT22;13363;52.772;-3.890;2023-03-05T08:53:22;5.80;99.90
25436;DHT22;13363;52.772;-3.890;2023-03-05T08:55:55;5.80;99.90
25436;DHT22;13363;52.772;-3.890;2023-03-05T08:58:21;5.80;99.90
25436;DHT22;13363;52.772;-3.890;2023-03-05T09:00:46;5.80;99.90
25436;DHT22;13363;52.772;-3.890;2023-03-05T09:03:12;5.70;99.90
25436;DHT22;13363;52.772;-3.890;2023-03-05T09:05:38;5.80;99.90
25436;DHT22;13363;52.772;-3.890;2023-03-05T09:08:04;6.00;99.90
25436;DHT22;13363;52.772;-3.890;2023-03-05T09:10:29;6.10;99.90
25436;DHT22;13363;52.772;-3.890;2023-03-05T09:12:56;6.10;99.90
25436;DHT22;13363;52.772;-3.890;2023-03-05T09:15:24;6.10;99.90
25436;DHT22;13363;52.772;-3.890;2023-03-05T09:17:50;6.00;99.90
25436;DHT22;13363;52.772;-3.890;2023-03-05T09:20:16;6.00;99.90
25436;DHT22;13363;52.772;-3.890;2023-03-05T09:22:42;6.00;99.90
25436;DHT22;13363;52.772;-3.890;2023-03-05T09:25:10;6.00;99.90
25436;DHT22;13363;52.772;-3.890;2023-03-05T09:27:36;6.10;99.90
25436;DHT22;13363;52.772;-3.890;2023-03-05T09:30:04;6.10;99.90
25436;DHT22;13363;52.772;-3.890;2023-03-05T09:32:30;6.20;99.90
25436;DHT22;13363;52.772;-3.890;2023-03-05T09:34:56;6.20;99.90
25436;DHT22;13363;52.772;-3.890;2023-03-05T09:37:22;6.10;99.90
25436;DHT22;13363;52.772;-3.890;2023-03-05T09:39:48;6.10;99.90
25436;DHT22;13363;52.772;-3.890;2023-03-05T09:53:11;6.70;99.90
25436;DHT22;13363;52.772;-3.890;2023-03-05T09:55:46;7.00;99.90
25436;DHT22;13363;52.772;-3.890;2023-03-05T09:58:28;7.10;99.90
25436;DHT22;13363;52.772;-3.890;2023-03-05T10:03:52;7.10;99.90
25436;DHT22;13363;52.772;-3.890;2023-03-05T10:12:05;7.40;99.90
25436;DHT22;13363;52.772;-3.890;2023-03-05T10:14:38;7.50;99.90
25436;DHT22;13363;52.772;-3.890;2023-03-05T10:42:24;8.00;99.90
25436;DHT22;13363;52.772;-3.890;2023-03-05T10:44:54;8.10;99.90
25436;DHT22;13363;52.772;-3.890;2023-03-05T10:47:29;8.20;99.90
25436;DHT22;13363;52.772;-3.890;2023-03-05T10:49:57;8.20;99.90
25436;DHT22;13363;52.772;-3.890;2023-03-05T10:52:36;8.30;99.90
25436;DHT22;13363;52.772;-3.890;2023-03-05T10:55:16;8.40;99.90
25436;DHT22;13363;52.772;-3.890;2023-03-05T10:57:42;8.40;99.90
25436;DHT22;13363;52.772;-3.890;2023-03-05T11:00:21;8.50;99.90
25436;DHT22;13363;52.772;-3.890;2023-03-05T11:03:04;8.50;99.90
25436;DHT22;13363;52.772;-3.890;2023-03-05T11:05:49;8.50;99.90
25436;DHT22;13363;52.772;-3.890;2023-03-05T11:08:30;8.50;99.90
25436;DHT22;13363;52.772;-3.890;2023-03-05T11:13:37;8.60;99.90
25436;DHT22;13363;52.772;-3.890;2023-03-05T11:16:05;8.50;99.90
25436;DHT22;13363;52.772;-3.890;2023-03-05T11:18:32;8.20;99.90
25436;DHT22;13363;52.772;-3.890;2023-03-05T11:21:21;8.10;99.90
25436;DHT22;13363;52.772;-3.890;2023-03-05T11:24:17;7.90;99.90
25436;DHT22;13363;52.772;-3.890;2023-03-05T11:26:52;7.90;99.90
25436;DHT22;13363;52.772;-3.890;2023-03-05T11:29:22;7.90;99.90
25436;DHT22;13363;52.772;-3.890;2023-03-05T11:31:49;7.80;99.90
25436;DHT22;13363;52.772;-3.890;2023-03-05T11:39:25;7.90;99.90
25436;DHT22;13363;52.772;-3.890;2023-03-05T11:42:05;8.00;99.90
25436;DHT22;13363;52.772;-3.890;2023-03-05T11:44:44;8.00;99.90
25436;DHT22;13363;52.772;-3.890;2023-03-05T11:50:21;8.20;99.90
25436;DHT22;13363;52.772;-3.890;2023-03-05T11:52:51;8.40;99.90
25436;DHT22;13363;52.772;-3.890;2023-03-05T11:55:29;8.50;99.90
25436;DHT22;13363;52.772;-3.890;2023-03-05T11:58:29;8.70;99.90
25436;DHT22;13363;52.772;-3.890;2023-03-05T12:00:57;9.00;99.90
25436;DHT22;13363;52.772;-3.890;2023-03-05T12:03:28;9.00;99.90
25436;DHT22;13363;52.772;-3.890;2023-03-05T12:08:37;9.00;99.90
25436;DHT22;13363;52.772;-3.890;2023-03-05T12:11:25;8.80;99.90
25436;DHT22;13363;52.772;-3.890;2023-03-05T12:21:41;8.10;99.90
25436;DHT22;13363;52.772;-3.890;2023-03-05T12:29:39;8.10;99.90
25436;DHT22;13363;52.772;-3.890;2023-03-05T12:35:23;8.30;99.90
25436;DHT22;13363;52.772;-3.890;2023-03-05T12:42:56;8.20;99.90
25436;DHT22;13363;52.772;-3.890;2023-03-05T12:45:25;8.20;99.90
25436;DHT22;13363;52.772;-3.890;2023-03-05T12:55:50;8.20;99.90
25436;DHT22;13363;52.772;-3.890;2023-03-05T13:03:34;8.10;99.90
25436;DHT22;13363;52.772;-3.890;2023-03-05T13:06:01;8.10;99.90
25436;DHT22;13363;52.772;-3.890;2023-03-05T13:08:33;8.10;99.90
25436;DHT22;13363;52.772;-3.890;2023-03-05T13:11:05;8.20;99.90
25436;DHT22;13363;52.772;-3.890;2023-03-05T13:13:40;8.00;99.90
25436;DHT22;13363;52.772;-3.890;2023-03-05T13:16:28;7.90;99.90
25436;DHT22;13363;52.772;-3.890;2023-03-05T13:18:58;7.90;99.90
25436;DHT22;13363;52.772;-3.890;2023-03-05T13:21:31;7.90;99.90
25436;DHT22;13363;52.772;-3.890;2023-03-05T13:24:00;7.90;99.90
25436;DHT22;13363;52.772;-3.890;2023-03-05T13:26:39;7.80;99.90
25436;DHT22;13363;52.772;-3.890;2023-03-05T13:29:12;7.80;99.90
25436;DHT22;13363;52.772;-3.890;2023-03-05T13:32:01;7.70;99.90
25436;DHT22;13363;52.772;-3.890;2023-03-05T13:34:34;7.70;99.90
25436;DHT22;13363;52.772;-3.890;2023-03-05T13:37:20;7.70;99.90
25436;DHT22;13363;52.772;-3.890;2023-03-05T13:40:02;7.70;99.90
25436;DHT22;13363;52.772;-3.890;2023-03-05T13:42:35;7.80;99.90
25436;DHT22;13363;52.772;-3.890;2023-03-05T13:45:05;7.80;99.90
25436;DHT22;13363;52.772;-3.890;2023-03-05T13:47:33;7.90;99.90
25436;DHT22;13363;52.772;-3.890;2023-03-05T13:50:03;7.70;99.90
25436;DHT22;13363;52.772;-3.890;2023-03-05T13:52:36;7.60;99.90
25436;DHT22;13363;52.772;-3.890;2023-03-05T13:55:11;7.50;99.90
25436;DHT22;13363;52.772;-3.890;2023-03-05T13:57:42;7.40;99.90
25436;DHT22;13363;52.772;-3.890;2023-03-05T14:00:33;7.30;99.90
25436;DHT22;13363;52.772;-3.890;2023-03-05T14:03:18;7.30;99.90
25436;DHT22;13363;52.772;-3.890;2023-03-05T14:05:47;7.30;99.90
25436;DHT22;13363;52.772;-3.890;2023-03-05T14:08:25;7.40;99.90
25436;DHT22;13363;52.772;-3.890;2023-03-05T14:10:52;7.60;99.90
25436;DHT22;13363;52.772;-3.890;2023-03-05T14:13:24;7.70;99.90
25436;DHT22;13363;52.772;-3.890;2023-03-05T14:16:25;7.80;99.90
25436;DHT22;13363;52.772;-3.890;2023-03-05T14:18:59;7.80;99.90
25436;DHT22;13363;52.772;-3.890;2023-03-05T14:21:43;7.80;99.90
25436;DHT22;13363;52.772;-3.890;2023-03-05T14:24:19;7.70;99.90
25436;DHT22;13363;52.772;-3.890;2023-03-05T14:26:52;7.70;99.90
25436;DHT22;13363;52.772;-3.890;2023-03-05T14:29:22;7.70;99.90
25436;DHT22;13363;52.772;-3.890;2023-03-05T14:31:52;7.70;99.90
25436;DHT22;13363;52.772;-3.890;2023-03-05T14:36:48;7.80;99.90
25436;DHT22;13363;52.772;-3.890;2023-03-05T14:39:30;7.90;99.90
25436;DHT22;13363;52.772;-3.890;2023-03-05T14:44:55;7.90;99.90
25436;DHT22;13363;52.772;-3.890;2023-03-05T14:47:23;7.90;99.90
25436;DHT22;13363;52.772;-3.890;2023-03-05T14:49:50;7.90;99.90
25436;DHT22;13363;52.772;-3.890;2023-03-05T14:52:19;7.80;99.90
25436;DHT22;13363;52.772;-3.890;2023-03-05T14:54:47;7.80;99.90
25436;DHT22;13363;52.772;-3.890;2023-03-05T14:57:22;7.80;99.90
25436;DHT22;13363;52.772;-3.890;2023-03-05T14:59:48;7.80;99.90
25436;DHT22;13363;52.772;-3.890;2023-03-05T15:02:19;7.90;99.90
25436;DHT22;13363;52.772;-3.890;2023-03-05T15:04:46;7.90;99.90
25436;DHT22;13363;52.772;-3.890;2023-03-05T15:07:19;7.90;99.90
25436;DHT22;13363;52.772;-3.890;2023-03-05T15:09:48;7.90;99.90
25436;DHT22;13363;52.772;-3.890;2023-03-05T15:12:16;7.90;99.90
25436;DHT22;13363;52.772;-3.890;2023-03-05T15:14:43;8.10;99.90
25436;DHT22;13363;52.772;-3.890;2023-03-05T15:17:17;8.10;99.90
25436;DHT22;13363;52.772;-3.890;2023-03-05T15:19:46;8.10;99.90
25436;DHT22;13363;52.772;-3.890;2023-03-05T15:22:15;8.10;99.90
25436;DHT22;13363;52.772;-3.890;2023-03-05T15:24:42;8.20;99.90
25436;DHT22;13363;52.772;-3.890;2023-03-05T15:27:10;8.90;99.90
25436;DHT22;13363;52.772;-3.890;2023-03-05T15:29:37;8.20;99.90
25436;DHT22;13363;52.772;-3.890;2023-03-05T15:32:04;8.20;99.90
25436;DHT22;13363;52.772;-3.890;2023-03-05T15:34:30;8.20;99.90
25436;DHT22;13363;52.772;-3.890;2023-03-05T15:36:58;8.20;99.90
25436;DHT22;13363;52.772;-3.890;2023-03-05T15:39:24;8.30;99.90
25436;DHT22;13363;52.772;-3.890;2023-03-05T15:41:51;8.30;99.90
25436;DHT22;13363;52.772;-3.890;2023-03-05T15:44:18;8.30;99.90
25436;DHT22;13363;52.772;-3.890;2023-03-05T15:46:44;8.30;99.90
25436;DHT22;13363;52.772;-3.890;2023-03-05T15:49:10;8.30;99.90
25436;DHT22;13363;52.772;-3.890;2023-03-05T15:51:36;8.30;99.90
25436;DHT22;13363;52.772;-3.890;2023-03-05T15:54:01;8.20;99.90
25436;DHT22;13363;52.772;-3.890;2023-03-05T15:56:27;8.10;99.90
25436;DHT22;13363;52.772;-3.890;2023-03-05T15:58:52;8.00;99.90
25436;DHT22;13363;52.772;-3.890;2023-03-05T16:01:18;8.00;99.90
25436;DHT22;13363;52.772;-3.890;2023-03-05T16:03:45;8.00;99.90
25436;DHT22;13363;52.772;-3.890;2023-03-05T16:06:13;8.00;99.90
25436;DHT22;13363;52.772;-3.890;2023-03-05T16:08:42;8.00;99.90
25436;DHT22;13363;52.772;-3.890;2023-03-05T16:11:10;7.90;99.90
25436;DHT22;13363;52.772;-3.890;2023-03-05T16:13:37;7.90;99.90
25436;DHT22;13363;52.772;-3.890;2023-03-05T16:16:06;7.90;99.90
25436;DHT22;13363;52.772;-3.890;2023-03-05T16:18:33;7.90;99.90
25436;DHT22;13363;52.772;-3.890;2023-03-05T16:21:02;8.00;99.90
25436;DHT22;13363;52.772;-3.890;2023-03-05T16:23:29;7.90;99.90
25436;DHT22;13363;52.772;-3.890;2023-03-05T16:25:55;7.90;99.90
25436;DHT22;13363;52.772;-3.890;2023-03-05T16:28:22;7.90;99.90
25436;DHT22;13363;52.772;-3.890;2023-03-05T16:30:56;7.90;99.90
25436;DHT22;13363;52.772;-3.890;2023-03-05T16:33:23;7.90;99.90
25436;DHT22;13363;52.772;-3.890;2023-03-05T16:38:36;7.90;99.90
25436;DHT22;13363;52.772;-3.890;2023-03-05T16:41:03;7.80;99.90
25436;DHT22;13363;52.772;-3.890;2023-03-05T16:43:31;7.80;99.90
25436;DHT22;13363;52.772;-3.890;2023-03-05T16:45:57;7.80;99.90
25436;DHT22;13363;52.772;-3.890;2023-03-05T16:48:24;7.80;99.90
25436;DHT22;13363;52.772;-3.890;2023-03-05T16:50:50;7.80;99.90
25436;DHT22;13363;52.772;-3.890;2023-03-05T16:53:16;7.70;99.90
25436;DHT22;13363;52.772;-3.890;2023-03-05T16:55:41;7.70;99.90
25436;DHT22;13363;52.772;-3.890;2023-03-05T16:58:07;7.70;99.90
25436;DHT22;13363;52.772;-3.890;2023-03-05T17:00:33;7.70;99.90
25436;DHT22;13363;52.772;-3.890;2023-03-05T17:02:59;7.70;99.90
25436;DHT22;13363;52.772;-3.890;2023-03-05T17:05:25;7.70;99.90
25436;DHT22;13363;52.772;-3.890;2023-03-05T17:07:54;7.70;99.90
25436;DHT22;13363;52.772;-3.890;2023-03-05T17:10:21;7.70;99.90
25436;DHT22;13363;52.772;-3.890;2023-03-05T17:12:47;7.70;99.90
25436;DHT22;13363;52.772;-3.890;2023-03-05T17:15:14;7.70;99.90
25436;DHT22;13363;52.772;-3.890;2023-03-05T17:17:40;7.70;99.90
25436;DHT22;13363;52.772;-3.890;2023-03-05T17:20:08;7.60;99.90